sensor_id;sensor_type;location;lat;lon;timestamp;temperature;humidity
65072;DHT22;51663;52.310;17.016;2023-04-25T00:03:00;30.80;26.50
65072;DHT22;51663;52.310;17.016;2023-04-25T00:11:11;30.80;26.80
65072;DHT22;51663;52.310;17.016;2023-04-25T00:14:47;30.90;26.50
65072;DHT22;51663;52.310;17.016;2023-04-25T00:17:51;30.80;26.50
65072;DHT22;51663;52.310;17.016;2023-04-25T00:21:22;30.80;26.50
65072;DHT22;51663;52.310;17.016;2023-04-25T00:28:58;30.80;26.50
65072;DHT22;51663;52.310;17.016;2023-04-25T00:32:15;30.70;27.00
65072;DHT22;51663;52.310;17.016;2023-04-25T00:35:56;30.70;26.70
65072;DHT22;51663;52.310;17.016;2023-04-25T00:39:31;30.70;26.70
65072;DHT22;51663;52.310;17.016;2023-04-25T00:43:36;30.70;26.60
65072;DHT22;51663;52.310;17.016;2023-04-25T00:47:19;30.60;26.50
65072;DHT22;51663;52.310;17.016;2023-04-25T00:50:21;30.70;26.80
65072;DHT22;51663;52.310;17.016;2023-04-25T00:54:08;30.60;26.50
65072;DHT22;51663;52.310;17.016;2023-04-25T00:58:05;30.30;26.60
65072;DHT22;51663;52.310;17.016;2023-04-25T01:02:11;30.30;26.80
65072;DHT22;51663;52.310;17.016;2023-04-25T01:05:56;30.20;26.70
65072;DHT22;51663;52.310;17.016;2023-04-25T01:09:49;30.20;26.70
65072;DHT22;51663;52.310;17.016;2023-04-25T01:24:48;30.10;27.00
65072;DHT22;51663;52.310;17.016;2023-04-25T01:28:40;30.20;26.80
65072;DHT22;51663;52.310;17.016;2023-04-25T01:36:49;30.20;26.80
65072;DHT22;51663;52.310;17.016;2023-04-25T01:40:12;30.20;26.80
65072;DHT22;51663;52.310;17.016;2023-04-25T01:43:54;30.00;26.70
65072;DHT22;51663;52.310;17.016;2023-04-25T01:47:29;30.00;26.80
65072;DHT22;51663;52.310;17.016;2023-04-25T01:50:58;30.00;26.70
65072;DHT22;51663;52.310;17.016;2023-04-25T01:58:35;29.90;26.70
65072;DHT22;51663;52.310;17.016;2023-04-25T02:02:17;30.10;26.70
65072;DHT22;51663;52.310;17.016;2023-04-25T02:05:51;30.10;26.60
65072;DHT22;51663;52.310;17.016;2023-04-25T02:08:53;30.20;26.40
65072;DHT22;51663;52.310;17.016;2023-04-25T02:16:23;30.10;26.40
65072;DHT22;51663;52.310;17.016;2023-04-25T02:19:52;30.20;26.10
65072;DHT22;51663;52.310;17.016;2023-04-25T02:22:54;30.20;26.20
65072;DHT22;51663;52.310;17.016;2023-04-25T02:26:18;30.00;26.20
65072;DHT22;51663;52.310;17.016;2023-04-25T02:29:36;30.20;26.20
65072;DHT22;51663;52.310;17.016;2023-04-25T02:37:19;30.10;26.30
65072;DHT22;51663;52.310;17.016;2023-04-25T02:44:34;30.10;26.30
65072;DHT22;51663;52.310;17.016;2023-04-25T02:51:59;30.10;26.20
65072;DHT22;51663;52.310;17.016;2023-04-25T02:55:56;30.10;26.10
65072;DHT22;51663;52.310;17.016;2023-04-25T02:59:50;30.00;26.20
65072;DHT22;51663;52.310;17.016;2023-04-25T03:03:07;30.00;26.20
65072;DHT22;51663;52.310;17.016;2023-04-25T03:11:01;29.90;26.20
65072;DHT22;51663;52.310;17.016;2023-04-25T03:14:29;29.80;26.20
65072;DHT22;51663;52.310;17.016;2023-04-25T03:22:56;29.50;26.50
65072;DHT22;51663;52.310;17.016;2023-04-25T03:30:37;29.40;26.60
65072;DHT22;51663;52.310;17.016;2023-04-25T03:34:26;29.50;26.70
65072;DHT22;51663;52.310;17.016;2023-04-25T03:38:11;29.60;26.90
65072;DHT22;51663;52.310;17.016;2023-04-25T03:45:58;29.60;26.70
65072;DHT22;51663;52.310;17.016;2023-04-25T03:49:14;29.60;26.60
65072;DHT22;51663;52.310;17.016;2023-04-25T03:53:18;29.40;26.70
65072;DHT22;51663;52.310;17.016;2023-04-25T03:56:42;29.20;26.80
65072;DHT22;51663;52.310;17.016;2023-04-25T03:59:47;29.40;27.00
65072;DHT22;51663;52.310;17.016;2023-04-25T04:03:41;29.50;26.80
65072;DHT22;51663;52.310;17.016;2023-04-25T04:07:00;29.60;26.90
65072;DHT22;51663;52.310;17.016;2023-04-25T04:10:19;29.60;26.80
65072;DHT22;51663;52.310;17.016;2023-04-25T04:13:59;29.60;27.00
65072;DHT22;51663;52.310;17.016;2023-04-25T04:17:01;29.60;26.80
65072;DHT22;51663;52.310;17.016;2023-04-25T04:20:04;29.90;26.90
65072;DHT22;51663;52.310;17.016;2023-04-25T04:23:48;30.10;26.80
65072;DHT22;51663;52.310;17.016;2023-04-25T04:27:18;30.20;26.70
65072;DHT22;51663;52.310;17.016;2023-04-25T04:31:24;30.40;26.70
65072;DHT22;51663;52.310;17.016;2023-04-25T04:35:54;30.70;26.40
65072;DHT22;51663;52.310;17.016;2023-04-25T04:39:30;30.70;26.40
65072;DHT22;51663;52.310;17.016;2023-04-25T04:43:04;31.00;26.10
65072;DHT22;51663;52.310;17.016;2023-04-25T04:46:46;31.20;25.80
65072;DHT22;51663;52.310;17.016;2023-04-25T04:50:42;31.60;25.90
65072;DHT22;51663;52.310;17.016;2023-04-25T04:55:03;31.80;25.50
65072;DHT22;51663;52.310;17.016;2023-04-25T04:58:45;31.80;25.40
65072;DHT22;51663;52.310;17.016;2023-04-25T05:02:03;32.10;25.30
65072;DHT22;51663;52.310;17.016;2023-04-25T05:05:06;32.50;25.30
65072;DHT22;51663;52.310;17.016;2023-04-25T05:08:34;33.00;24.70
65072;DHT22;51663;52.310;17.016;2023-04-25T05:16:56;33.80;24.20
65072;DHT22;51663;52.310;17.016;2023-04-25T05:24:46;34.60;23.90
65072;DHT22;51663;52.310;17.016;2023-04-25T05:33:16;34.30;23.30
65072;DHT22;51663;52.310;17.016;2023-04-25T05:36:25;34.50;23.50
65072;DHT22;51663;52.310;17.016;2023-04-25T05:39:41;34.80;23.10
65072;DHT22;51663;52.310;17.016;2023-04-25T05:43:13;35.30;22.90
65072;DHT22;51663;52.310;17.016;2023-04-25T05:46:15;36.00;22.20
65072;DHT22;51663;52.310;17.016;2023-04-25T05:49:20;36.20;22.10
65072;DHT22;51663;52.310;17.016;2023-04-25T05:52:22;35.90;21.80
65072;DHT22;51663;52.310;17.016;2023-04-25T05:55:25;35.90;22.10
65072;DHT22;51663;52.310;17.016;2023-04-25T05:58:27;35.90;22.00
65072;DHT22;51663;52.310;17.016;2023-04-25T06:01:29;35.90;22.10
65072;DHT22;51663;52.310;17.016;2023-04-25T06:04:31;35.90;22.80
65072;DHT22;51663;52.310;17.016;2023-04-25T06:07:35;36.20;22.40
65072;DHT22;51663;52.310;17.016;2023-04-25T06:10:37;36.20;22.30
65072;DHT22;51663;52.310;17.016;2023-04-25T06:13:41;36.30;21.80
65072;DHT22;51663;52.310;17.016;2023-04-25T06:16:44;36.40;21.50
65072;DHT22;51663;52.310;17.016;2023-04-25T06:19:46;36.30;21.60
65072;DHT22;51663;52.310;17.016;2023-04-25T06:22:49;36.50;22.10
65072;DHT22;51663;52.310;17.016;2023-04-25T06:25:52;36.50;21.30
65072;DHT22;51663;52.310;17.016;2023-04-25T06:28:54;36.40;21.70
65072;DHT22;51663;52.310;17.016;2023-04-25T06:31:56;36.30;21.60
65072;DHT22;51663;52.310;17.016;2023-04-25T06:35:04;36.20;21.90
65072;DHT22;51663;52.310;17.016;2023-04-25T06:38:07;36.00;21.60
65072;DHT22;51663;52.310;17.016;2023-04-25T06:41:09;35.70;21.90
65072;DHT22;51663;52.310;17.016;2023-04-25T06:44:11;35.60;22.30
65072;DHT22;51663;52.310;17.016;2023-04-25T06:47:14;35.60;21.90
65072;DHT22;51663;52.310;17.016;2023-04-25T06:50:17;35.40;22.40
65072;DHT22;51663;52.310;17.016;2023-04-25T06:53:19;35.50;22.50
65072;DHT22;51663;52.310;17.016;2023-04-25T06:56:21;35.60;22.40
65072;DHT22;51663;52.310;17.016;2023-04-25T06:59:23;35.60;22.20
65072;DHT22;51663;52.310;17.016;2023-04-25T07:02:26;35.60;22.30
65072;DHT22;51663;52.310;17.016;2023-04-25T07:05:36;35.70;21.90
65072;DHT22;51663;52.310;17.016;2023-04-25T07:08:39;35.50;22.40
65072;DHT22;51663;52.310;17.016;2023-04-25T07:11:41;35.50;22.50
65072;DHT22;51663;52.310;17.016;2023-04-25T07:14:43;35.50;22.20
65072;DHT22;51663;52.310;17.016;2023-04-25T07:17:45;35.50;22.20
65072;DHT22;51663;52.310;17.016;2023-04-25T07:20:50;35.60;22.20
65072;DHT22;51663;52.310;17.016;2023-04-25T07:23:53;35.40;22.40
65072;DHT22;51663;52.310;17.016;2023-04-25T07:26:55;35.60;22.00
65072;DHT22;51663;52.310;17.016;2023-04-25T07:29:58;35.80;22.10
65072;DHT22;51663;52.310;17.016;2023-04-25T07:33:00;35.60;22.00
65072;DHT22;51663;52.310;17.016;2023-04-25T07:36:03;35.60;22.20
65072;DHT22;51663;52.310;17.016;2023-04-25T07:39:07;35.80;22.60
65072;DHT22;51663;52.310;17.016;2023-04-25T07:42:11;36.00;21.90
65072;DHT22;51663;52.310;17.016;2023-04-25T07:45:19;35.90;22.20
65072;DHT22;51663;52.310;17.016;2023-04-25T07:48:22;36.00;22.00
65072;DHT22;51663;52.310;17.016;2023-04-25T07:51:25;36.00;22.40
65072;DHT22;51663;52.310;17.016;2023-04-25T07:54:31;35.90;21.80
65072;DHT22;51663;52.310;17.016;2023-04-25T07:57:36;35.90;22.00
65072;DHT22;51663;52.310;17.016;2023-04-25T08:00:53;36.00;22.10
65072;DHT22;51663;52.310;17.016;2023-04-25T08:03:59;36.00;21.90
65072;DHT22;51663;52.310;17.016;2023-04-25T08:07:04;35.70;22.00
65072;DHT22;51663;52.310;17.016;2023-04-25T08:10:08;35.80;22.30
65072;DHT22;51663;52.310;17.016;2023-04-25T08:13:10;35.60;22.10
65072;DHT22;51663;52.310;17.016;2023-04-25T08:16:13;35.70;22.20
65072;DHT22;51663;52.310;17.016;2023-04-25T08:19:15;35.70;21.90
65072;DHT22;51663;52.310;17.016;2023-04-25T08:22:18;35.70;21.80
65072;DHT22;51663;52.310;17.016;2023-04-25T08:25:21;35.50;21.70
65072;DHT22;51663;52.310;17.016;2023-04-25T08:28:23;35.40;21.90
65072;DHT22;51663;52.310;17.016;2023-04-25T08:31:26;35.60;22.70
65072;DHT22;51663;52.310;17.016;2023-04-25T08:34:29;35.80;22.50
65072;DHT22;51663;52.310;17.016;2023-04-25T08:37:32;35.70;22.00
65072;DHT22;51663;52.310;17.016;2023-04-25T08:40:38;35.90;22.00
65072;DHT22;51663;52.310;17.016;2023-04-25T08:43:56;36.00;21.70
65072;DHT22;51663;52.310;17.016;2023-04-25T08:47:03;36.10;21.90
65072;DHT22;51663;52.310;17.016;2023-04-25T08:50:07;36.00;21.60
65072;DHT22;51663;52.310;17.016;2023-04-25T08:53:15;36.20;21.60
65072;DHT22;51663;52.310;17.016;2023-04-25T08:56:22;36.00;21.20
65072;DHT22;51663;52.310;17.016;2023-04-25T08:59:27;36.10;21.80
65072;DHT22;51663;52.310;17.016;2023-04-25T09:02:29;36.10;21.80
65072;DHT22;51663;52.310;17.016;2023-04-25T09:05:33;36.20;21.20
65072;DHT22;51663;52.310;17.016;2023-04-25T09:08:36;36.30;21.50
65072;DHT22;51663;52.310;17.016;2023-04-25T09:11:40;36.30;21.30
65072;DHT22;51663;52.310;17.016;2023-04-25T09:15:07;36.20;21.50
65072;DHT22;51663;52.310;17.016;2023-04-25T09:18:13;36.30;21.20
65072;DHT22;51663;52.310;17.016;2023-04-25T09:21:15;36.20;21.30
65072;DHT22;51663;52.310;17.016;2023-04-25T09:24:36;36.10;21.10
65072;DHT22;51663;52.310;17.016;2023-04-25T09:27:53;35.80;20.90
65072;DHT22;51663;52.310;17.016;2023-04-25T09:31:02;35.70;20.70
65072;DHT22;51663;52.310;17.016;2023-04-25T09:34:04;35.70;21.10
65072;DHT22;51663;52.310;17.016;2023-04-25T09:37:11;35.50;22.00
65072;DHT22;51663;52.310;17.016;2023-04-25T09:40:14;35.40;21.90
65072;DHT22;51663;52.310;17.016;2023-04-25T09:43:23;35.20;21.70
65072;DHT22;51663;52.310;17.016;2023-04-25T09:46:33;35.40;21.50
65072;DHT22;51663;52.310;17.016;2023-04-25T09:49:42;35.40;21.10
65072;DHT22;51663;52.310;17.016;2023-04-25T09:52:45;35.50;21.40
65072;DHT22;51663;52.310;17.016;2023-04-25T09:55:49;35.50;21.70
65072;DHT22;51663;52.310;17.016;2023-04-25T09:58:53;35.40;21.80
65072;DHT22;51663;52.310;17.016;2023-04-25T10:01:57;35.60;21.80
65072;DHT22;51663;52.310;17.016;2023-04-25T10:05:02;35.60;21.10
65072;DHT22;51663;52.310;17.016;2023-04-25T10:08:08;35.20;22.10
65072;DHT22;51663;52.310;17.016;2023-04-25T10:11:11;35.00;22.00
65072;DHT22;51663;52.310;17.016;2023-04-25T10:14:17;35.00;22.10
65072;DHT22;51663;52.310;17.016;2023-04-25T10:17:20;35.20;22.20
65072;DHT22;51663;52.310;17.016;2023-04-25T10:20:23;35.20;21.80
65072;DHT22;51663;52.310;17.016;2023-04-25T10:23:26;35.30;22.20
65072;DHT22;51663;52.310;17.016;2023-04-25T10:26:30;35.20;22.00
65072;DHT22;51663;52.310;17.016;2023-04-25T10:29:32;35.30;22.00
65072;DHT22;51663;52.310;17.016;2023-04-25T10:32:35;35.30;22.10
65072;DHT22;51663;52.310;17.016;2023-04-25T10:35:38;35.20;21.70
65072;DHT22;51663;52.310;17.016;2023-04-25T10:38:43;35.10;22.00
65072;DHT22;51663;52.310;17.016;2023-04-25T10:41:47;35.00;22.30
65072;DHT22;51663;52.310;17.016;2023-04-25T10:45:04;34.90;22.20
65072;DHT22;51663;52.310;17.016;2023-04-25T10:48:28;35.00;22.00
65072;DHT22;51663;52.310;17.016;2023-04-25T10:51:32;35.00;22.20
65072;DHT22;51663;52.310;17.016;2023-04-25T10:54:56;35.00;22.00
65072;DHT22;51663;52.310;17.016;2023-04-25T10:57:58;35.00;21.70
65072;DHT22;51663;52.310;17.016;2023-04-25T11:01:03;35.10;22.00
65072;DHT22;51663;52.310;17.016;2023-04-25T11:04:05;35.10;21.40
65072;DHT22;51663;52.310;17.016;2023-04-25T11:07:26;35.10;21.40
65072;DHT22;51663;52.310;17.016;2023-04-25T11:10:32;35.30;22.00
65072;DHT22;51663;52.310;17.016;2023-04-25T11:13:35;35.30;21.40
65072;DHT22;51663;52.310;17.016;2023-04-25T11:16:37;35.20;21.30
65072;DHT22;51663;52.310;17.016;2023-04-25T11:19:40;35.10;21.60
65072;DHT22;51663;52.310;17.016;2023-04-25T11:22:46;35.20;21.20
65072;DHT22;51663;52.310;17.016;2023-04-25T11:25:50;35.20;21.70
65072;DHT22;51663;52.310;17.016;2023-04-25T11:28:58;35.10;21.80
65072;DHT22;51663;52.310;17.016;2023-04-25T11:32:07;35.30;21.80
65072;DHT22;51663;52.310;17.016;2023-04-25T11:35:10;35.30;21.50
65072;DHT22;51663;52.310;17.016;2023-04-25T11:38:13;35.50;21.30
65072;DHT22;51663;52.310;17.016;2023-04-25T11:41:16;35.80;21.00
65072;DHT22;51663;52.310;17.016;2023-04-25T11:44:19;36.00;21.30
65072;DHT22;51663;52.310;17.016;2023-04-25T11:47:30;36.10;20.50
65072;DHT22;51663;52.310;17.016;2023-04-25T11:50:33;36.00;20.80
65072;DHT22;51663;52.310;17.016;2023-04-25T11:53:40;35.90;20.80
65072;DHT22;51663;52.310;17.016;2023-04-25T11:56:48;35.70;20.60
65072;DHT22;51663;52.310;17.016;2023-04-25T11:59:52;35.70;20.50
65072;DHT22;51663;52.310;17.016;2023-04-25T12:02:55;35.60;21.50
65072;DHT22;51663;52.310;17.016;2023-04-25T12:06:03;35.50;21.10
65072;DHT22;51663;52.310;17.016;2023-04-25T12:09:12;35.20;21.30
65072;DHT22;51663;52.310;17.016;2023-04-25T12:12:20;35.10;21.40
65072;DHT22;51663;52.310;17.016;2023-04-25T12:15:24;35.00;21.50
65072;DHT22;51663;52.310;17.016;2023-04-25T12:18:27;34.80;23.00
65072;DHT22;51663;52.310;17.016;2023-04-25T12:21:29;34.50;23.40
65072;DHT22;51663;52.310;17.016;2023-04-25T12:25:33;34.40;23.30
65072;DHT22;51663;52.310;17.016;2023-04-25T12:28:35;34.10;24.10
65072;DHT22;51663;52.310;17.016;2023-04-25T12:31:46;34.00;23.40
65072;DHT22;51663;52.310;17.016;2023-04-25T12:34:51;34.00;23.60
65072;DHT22;51663;52.310;17.016;2023-04-25T12:37:57;34.00;23.90
65072;DHT22;51663;52.310;17.016;2023-04-25T12:41:00;33.90;23.70
65072;DHT22;51663;52.310;17.016;2023-04-25T12:44:03;33.80;24.00
65072;DHT22;51663;52.310;17.016;2023-04-25T12:47:06;34.00;24.00
65072;DHT22;51663;52.310;17.016;2023-04-25T12:50:09;34.20;23.90
65072;DHT22;51663;52.310;17.016;2023-04-25T12:53:23;34.50;23.70
65072;DHT22;51663;52.310;17.016;2023-04-25T12:56:27;34.40;23.00
65072;DHT22;51663;52.310;17.016;2023-04-25T12:59:30;34.50;23.20
65072;DHT22;51663;52.310;17.016;2023-04-25T13:02:37;34.80;23.30
65072;DHT22;51663;52.310;17.016;2023-04-25T13:05:40;34.80;22.90
65072;DHT22;51663;52.310;17.016;2023-04-25T13:08:46;35.00;22.20
65072;DHT22;51663;52.310;17.016;2023-04-25T13:11:57;34.90;22.70
65072;DHT22;51663;52.310;17.016;2023-04-25T13:15:00;34.80;23.40
65072;DHT22;51663;52.310;17.016;2023-04-25T13:18:06;34.80;23.10
65072;DHT22;51663;52.310;17.016;2023-04-25T13:21:11;34.80;23.00
65072;DHT22;51663;52.310;17.016;2023-04-25T13:24:14;34.90;23.10
65072;DHT22;51663;52.310;17.016;2023-04-25T13:27:17;34.90;22.70
65072;DHT22;51663;52.310;17.016;2023-04-25T13:30:20;34.70;22.70
65072;DHT22;51663;52.310;17.016;2023-04-25T13:33:23;34.80;22.90
65072;DHT22;51663;52.310;17.016;2023-04-25T13:36:25;34.80;23.00
65072;DHT22;51663;52.310;17.016;2023-04-25T13:39:28;35.00;22.70
65072;DHT22;51663;52.310;17.016;2023-04-25T13:42:31;35.00;22.30
65072;DHT22;51663;52.310;17.016;2023-04-25T13:45:34;33.60;22.20
65072;DHT22;51663;52.310;17.016;2023-04-25T13:48:39;32.70;24.60
65072;DHT22;51663;52.310;17.016;2023-04-25T13:51:52;31.40;26.60
65072;DHT22;51663;52.310;17.016;2023-04-25T13:54:58;30.90;28.10
65072;DHT22;51663;52.310;17.016;2023-04-25T13:58:04;31.30;27.90
65072;DHT22;51663;52.310;17.016;2023-04-25T14:01:18;31.50;27.90
65072;DHT22;51663;52.310;17.016;2023-04-25T14:04:23;31.90;27.90
65072;DHT22;51663;52.310;17.016;2023-04-25T14:07:30;32.40;27.10
65072;DHT22;51663;52.310;17.016;2023-04-25T14:10:57;32.50;27.30
65072;DHT22;51663;52.310;17.016;2023-04-25T14:14:08;32.40;26.90
65072;DHT22;51663;52.310;17.016;2023-04-25T14:17:11;32.70;27.30
65072;DHT22;51663;52.310;17.016;2023-04-25T14:20:26;32.80;27.30
65072;DHT22;51663;52.310;17.016;2023-04-25T14:23:37;32.90;27.30
65072;DHT22;51663;52.310;17.016;2023-04-25T14:26:54;33.10;27.50
65072;DHT22;51663;52.310;17.016;2023-04-25T14:37:31;33.70;26.90
65072;DHT22;51663;52.310;17.016;2023-04-25T14:40:48;33.80;26.30
65072;DHT22;51663;52.310;17.016;2023-04-25T14:44:22;34.00;25.80
65072;DHT22;51663;52.310;17.016;2023-04-25T14:47:51;34.10;26.80
65072;DHT22;51663;52.310;17.016;2023-04-25T14:51:04;34.30;25.70
65072;DHT22;51663;52.310;17.016;2023-04-25T14:54:29;34.10;26.50
65072;DHT22;51663;52.310;17.016;2023-04-25T14:57:37;33.90;26.90
65072;DHT22;51663;52.310;17.016;2023-04-25T15:01:08;33.60;26.30
65072;DHT22;51663;52.310;17.016;2023-04-25T15:04:23;33.10;26.90
65072;DHT22;51663;52.310;17.016;2023-04-25T15:07:26;33.00;27.40
65072;DHT22;51663;52.310;17.016;2023-04-25T15:10:56;32.70;27.50
65072;DHT22;51663;52.310;17.016;2023-04-25T15:14:42;32.70;27.90
65072;DHT22;51663;52.310;17.016;2023-04-25T15:18:02;32.70;28.20
65072;DHT22;51663;52.310;17.016;2023-04-25T15:21:09;32.80;27.30
65072;DHT22;51663;52.310;17.016;2023-04-25T15:24:33;32.30;27.10
65072;DHT22;51663;52.310;17.016;2023-04-25T15:27:52;31.90;26.10
65072;DHT22;51663;52.310;17.016;2023-04-25T15:31:03;31.60;26.30
65072;DHT22;51663;52.310;17.016;2023-04-25T15:34:09;31.30;26.50
65072;DHT22;51663;52.310;17.016;2023-04-25T15:37:19;31.50;26.50
65072;DHT22;51663;52.310;17.016;2023-04-25T15:40:34;31.30;25.60
65072;DHT22;51663;52.310;17.016;2023-04-25T15:43:41;31.40;25.00
65072;DHT22;51663;52.310;17.016;2023-04-25T15:46:51;31.30;26.30
65072;DHT22;51663;52.310;17.016;2023-04-25T15:49:56;31.10;26.10
65072;DHT22;51663;52.310;17.016;2023-04-25T15:53:05;30.80;26.10
65072;DHT22;51663;52.310;17.016;2023-04-25T15:56:36;30.80;26.20
65072;DHT22;51663;52.310;17.016;2023-04-25T15:59:39;30.80;26.50
65072;DHT22;51663;52.310;17.016;2023-04-25T16:02:42;31.00;26.80
65072;DHT22;51663;52.310;17.016;2023-04-25T16:05:54;31.30;26.50
65072;DHT22;51663;52.310;17.016;2023-04-25T16:09:06;31.40;26.60
65072;DHT22;51663;52.310;17.016;2023-04-25T16:12:11;31.40;26.10
65072;DHT22;51663;52.310;17.016;2023-04-25T16:15:13;31.30;26.40
65072;DHT22;51663;52.310;17.016;2023-04-25T16:18:16;31.40;26.40
65072;DHT22;51663;52.310;17.016;2023-04-25T16:21:20;31.70;25.80
65072;DHT22;51663;52.310;17.016;2023-04-25T16:24:22;31.60;26.30
65072;DHT22;51663;52.310;17.016;2023-04-25T16:27:49;31.90;26.20
65072;DHT22;51663;52.310;17.016;2023-04-25T16:31:11;31.80;25.90
65072;DHT22;51663;52.310;17.016;2023-04-25T16:34:22;31.80;25.70
65072;DHT22;51663;52.310;17.016;2023-04-25T16:37:48;31.80;26.10
65072;DHT22;51663;52.310;17.016;2023-04-25T16:41:00;31.90;25.40
65072;DHT22;51663;52.310;17.016;2023-04-25T16:44:09;31.50;24.90
65072;DHT22;51663;52.310;17.016;2023-04-25T16:47:12;31.50;24.60
65072;DHT22;51663;52.310;17.016;2023-04-25T16:50:23;31.40;23.90
65072;DHT22;51663;52.310;17.016;2023-04-25T16:53:37;31.60;24.00
65072;DHT22;51663;52.310;17.016;2023-04-25T16:56:43;31.70;24.40
65072;DHT22;51663;52.310;17.016;2023-04-25T16:59:46;31.50;24.10
65072;DHT22;51663;52.310;17.016;2023-04-25T17:02:49;31.60;23.80
65072;DHT22;51663;52.310;17.016;2023-04-25T17:05:55;31.60;24.10
65072;DHT22;51663;52.310;17.016;2023-04-25T17:08:58;31.20;24.10
65072;DHT22;51663;52.310;17.016;2023-04-25T17:12:10;31.20;24.00
65072;DHT22;51663;52.310;17.016;2023-04-25T17:15:46;31.30;24.50
65072;DHT22;51663;52.310;17.016;2023-04-25T17:19:06;31.20;24.00
65072;DHT22;51663;52.310;17.016;2023-04-25T17:22:15;31.30;23.30
65072;DHT22;51663;52.310;17.016;2023-04-25T17:25:23;31.50;22.80
65072;DHT22;51663;52.310;17.016;2023-04-25T17:28:33;31.50;22.90
65072;DHT22;51663;52.310;17.016;2023-04-25T17:31:53;31.50;22.70
65072;DHT22;51663;52.310;17.016;2023-04-25T17:35:08;31.40;22.70
65072;DHT22;51663;52.310;17.016;2023-04-25T17:39:02;30.50;22.80
65072;DHT22;51663;52.310;17.016;2023-04-25T17:42:39;29.80;23.20
65072;DHT22;51663;52.310;17.016;2023-04-25T17:46:11;30.00;23.90
65072;DHT22;51663;52.310;17.016;2023-04-25T17:49:25;30.10;23.10
65072;DHT22;51663;52.310;17.016;2023-04-25T17:53:02;30.10;22.60
65072;DHT22;51663;52.310;17.016;2023-04-25T17:56:30;29.90;23.00
65072;DHT22;51663;52.310;17.016;2023-04-25T18:00:02;30.00;22.90
65072;DHT22;51663;52.310;17.016;2023-04-25T18:08:26;30.00;23.10
65072;DHT22;51663;52.310;17.016;2023-04-25T18:11:40;30.30;23.40
65072;DHT22;51663;52.310;17.016;2023-04-25T18:15:34;30.40;22.90
65072;DHT22;51663;52.310;17.016;2023-04-25T18:18:49;30.40;23.30
65072;DHT22;51663;52.310;17.016;2023-04-25T18:22:23;30.50;23.70
65072;DHT22;51663;52.310;17.016;2023-04-25T18:25:30;30.40;23.40
65072;DHT22;51663;52.310;17.016;2023-04-25T18:29:08;30.40;23.30
65072;DHT22;51663;52.310;17.016;2023-04-25T18:33:05;30.40;23.30
65072;DHT22;51663;52.310;17.016;2023-04-25T18:36:33;30.20;23.00
65072;DHT22;51663;52.310;17.016;2023-04-25T18:40:29;30.20;23.10
65072;DHT22;51663;52.310;17.016;2023-04-25T18:43:56;30.20;23.40
65072;DHT22;51663;52.310;17.016;2023-04-25T18:47:37;30.20;23.40
65072;DHT22;51663;52.310;17.016;2023-04-25T18:51:27;30.10;23.50
65072;DHT22;51663;52.310;17.016;2023-04-25T18:54:37;30.10;23.70
65072;DHT22;51663;52.310;17.016;2023-04-25T18:57:54;30.00;23.30
65072;DHT22;51663;52.310;17.016;2023-04-25T19:01:30;29.90;23.50
65072;DHT22;51663;52.310;17.016;2023-04-25T19:04:45;29.90;23.50
65072;DHT22;51663;52.310;17.016;2023-04-25T19:08:02;29.80;23.50
65072;DHT22;51663;52.310;17.016;2023-04-25T19:11:19;29.80;23.70
65072;DHT22;51663;52.310;17.016;2023-04-25T19:14:34;29.80;24.20
65072;DHT22;51663;52.310;17.016;2023-04-25T19:18:01;29.60;23.80
65072;DHT22;51663;52.310;17.016;2023-04-25T19:21:49;29.60;23.90
65072;DHT22;51663;52.310;17.016;2023-04-25T19:25:17;29.50;24.00
65072;DHT22;51663;52.310;17.016;2023-04-25T19:28:34;29.50;24.00
65072;DHT22;51663;52.310;17.016;2023-04-25T19:32:04;29.40;23.80
65072;DHT22;51663;52.310;17.016;2023-04-25T19:36:15;29.40;24.00
65072;DHT22;51663;52.310;17.016;2023-04-25T19:40:20;29.30;23.90
65072;DHT22;51663;52.310;17.016;2023-04-25T19:47:50;29.30;24.00
65072;DHT22;51663;52.310;17.016;2023-04-25T19:51:44;29.40;23.40
65072;DHT22;51663;52.310;17.016;2023-04-25T19:55:19;29.40;23.10
65072;DHT22;51663;52.310;17.016;2023-04-25T19:58:55;29.50;23.00
65072;DHT22;51663;52.310;17.016;2023-04-25T20:03:22;29.50;22.80
65072;DHT22;51663;52.310;17.016;2023-04-25T20:07:13;29.70;22.60
65072;DHT22;51663;52.310;17.016;2023-04-25T20:10:34;29.70;22.40
65072;DHT22;51663;52.310;17.016;2023-04-25T20:14:03;29.70;22.40
65072;DHT22;51663;52.310;17.016;2023-04-25T20:17:17;29.80;22.70
65072;DHT22;51663;52.310;17.016;2023-04-25T20:20:30;29.90;22.70
65072;DHT22;51663;52.310;17.016;2023-04-25T20:24:33;29.90;23.00
65072;DHT22;51663;52.310;17.016;2023-04-25T20:27:46;29.80;22.60
65072;DHT22;51663;52.310;17.016;2023-04-25T20:30:52;29.70;22.90
65072;DHT22;51663;52.310;17.016;2023-04-25T20:33:55;29.70;23.10
65072;DHT22;51663;52.310;17.016;2023-04-25T20:37:10;29.80;22.90
65072;DHT22;51663;52.310;17.016;2023-04-25T20:40:23;29.60;22.70
65072;DHT22;51663;52.310;17.016;2023-04-25T20:43:29;29.80;23.00
65072;DHT22;51663;52.310;17.016;2023-04-25T20:46:39;29.80;23.10
65072;DHT22;51663;52.310;17.016;2023-04-25T20:50:00;29.60;23.00
65072;DHT22;51663;52.310;17.016;2023-04-25T20:53:19;29.50;23.30
65072;DHT22;51663;52.310;17.016;2023-04-25T20:56:34;29.40;22.90
65072;DHT22;51663;52.310;17.016;2023-04-25T20:59:38;29.50;23.00
65072;DHT22;51663;52.310;17.016;2023-04-25T21:02:44;29.60;22.90
65072;DHT22;51663;52.310;17.016;2023-04-25T21:05:53;29.60;23.10
65072;DHT22;51663;52.310;17.016;2023-04-25T21:09:00;29.60;23.60
65072;DHT22;51663;52.310;17.016;2023-04-25T21:12:17;29.70;22.70
65072;DHT22;51663;52.310;17.016;2023-04-25T21:15:49;29.80;23.10
65072;DHT22;51663;52.310;17.016;2023-04-25T21:19:03;29.80;22.80
65072;DHT22;51663;52.310;17.016;2023-04-25T21:22:28;29.90;22.70
65072;DHT22;51663;52.310;17.016;2023-04-25T21:25:35;29.80;22.80
65072;DHT22;51663;52.310;17.016;2023-04-25T21:28:46;29.90;23.00
65072;DHT22;51663;52.310;17.016;2023-04-25T21:31:54;29.90;22.80
65072;DHT22;51663;52.310;17.016;2023-04-25T21:35:06;29.90;22.90
65072;DHT22;51663;52.310;17.016;2023-04-25T21:38:19;29.90;22.80
65072;DHT22;51663;52.310;17.016;2023-04-25T21:41:25;29.90;22.90
65072;DHT22;51663;52.310;17.016;2023-04-25T21:44:46;30.00;23.10
65072;DHT22;51663;52.310;17.016;2023-04-25T21:48:04;29.90;22.80
65072;DHT22;51663;52.310;17.016;2023-04-25T21:51:20;29.90;23.00
65072;DHT22;51663;52.310;17.016;2023-04-25T21:54:34;29.90;23.10